sensor_id;sensor_type;location;lat;lon;timestamp;pressure;altitude;pressure_sealevel;temperature;humidity
51849;BME280;38952;51.090;-1.832;2024-03-17T00:00:39;100507.59;;;10.40;100.00
51849;BME280;38952;51.090;-1.832;2024-03-17T00:03:06;100499.34;;;10.35;100.00
51849;BME280;38952;51.090;-1.832;2024-03-17T00:05:34;100512.53;;;10.43;100.00
51849;BME280;38952;51.090;-1.832;2024-03-17T00:08:02;100508.69;;;10.44;100.00
51849;BME280;38952;51.090;-1.832;2024-03-17T00:10:30;100500.75;;;10.37;100.00
51849;BME280;38952;51.090;-1.832;2024-03-17T00:12:56;100500.75;;;10.42;100.00
51849;BME280;38952;51.090;-1.832;2024-03-17T00:15:22;100513.09;;;10.45;100.00
51849;BME280;38952;51.090;-1.832;2024-03-17T00:17:48;100511.19;;;10.45;100.00
51849;BME280;38952;51.090;-1.832;2024-03-17T00:20:13;100503.22;;;10.44;100.00
51849;BME280;38952;51.090;-1.832;2024-03-17T00:22:46;100495.00;;;10.39;100.00
51849;BME280;38952;51.090;-1.832;2024-03-17T00:25:12;100493.13;;;10.44;100.00
51849;BME280;38952;51.090;-1.832;2024-03-17T00:27:37;100483.25;;;10.38;100.00
51849;BME280;38952;51.090;-1.832;2024-03-17T00:30:07;100495.03;;;10.44;100.00
51849;BME280;38952;51.090;-1.832;2024-03-17T00:32:39;100476.13;;;10.37;100.00
51849;BME280;38952;51.090;-1.832;2024-03-17T00:35:09;100473.13;;;10.39;100.00
51849;BME280;38952;51.090;-1.832;2024-03-17T00:37:36;100470.97;;;10.41;100.00
51849;BME280;38952;51.090;-1.832;2024-03-17T00:40:05;100472.94;;;10.45;100.00
51849;BME280;38952;51.090;-1.832;2024-03-17T00:42:32;100458.09;;;10.36;100.00
51849;BME280;38952;51.090;-1.832;2024-03-17T00:44:58;100475.94;;;10.49;100.00
51849;BME280;38952;51.090;-1.832;2024-03-17T00:47:25;100480.31;;;10.50;100.00
51849;BME280;38952;51.090;-1.832;2024-03-17T00:49:50;100473.25;;;10.54;100.00
51849;BME280;38952;51.090;-1.832;2024-03-17T00:52:16;100465.56;;;10.51;100.00
51849;BME280;38952;51.090;-1.832;2024-03-17T00:54:50;100455.16;;;10.48;100.00
51849;BME280;38952;51.090;-1.832;2024-03-17T00:57:16;100468.91;;;10.63;100.00
51849;BME280;38952;51.090;-1.832;2024-03-17T00:59:48;100465.34;;;10.63;100.00
51849;BME280;38952;51.090;-1.832;2024-03-17T01:02:15;100449.44;;;10.55;100.00
51849;BME280;38952;51.090;-1.832;2024-03-17T01:04:49;100445.34;;;10.52;100.00
51849;BME280;38952;51.090;-1.832;2024-03-17T01:07:14;100442.06;;;10.50;100.00
51849;BME280;38952;51.090;-1.832;2024-03-17T01:09:40;100456.56;;;10.56;100.00
51849;BME280;38952;51.090;-1.832;2024-03-17T01:12:05;100456.84;;;10.59;100.00
51849;BME280;38952;51.090;-1.832;2024-03-17T01:14:34;100442.91;;;10.61;100.00
51849;BME280;38952;51.090;-1.832;2024-03-17T01:17:00;100434.97;;;10.54;100.00
51849;BME280;38952;51.090;-1.832;2024-03-17T01:19:26;100435.50;;;10.56;100.00
51849;BME280;38952;51.090;-1.832;2024-03-17T01:21:52;100436.63;;;10.60;100.00
51849;BME280;38952;51.090;-1.832;2024-03-17T01:24:17;100429.50;;;10.59;100.00
51849;BME280;38952;51.090;-1.832;2024-03-17T01:26:43;100431.69;;;10.57;100.00
51849;BME280;38952;51.090;-1.832;2024-03-17T01:29:09;100417.44;;;10.55;100.00
51849;BME280;38952;51.090;-1.832;2024-03-17T01:31:37;100420.19;;;10.55;100.00
51849;BME280;38952;51.090;-1.832;2024-03-17T01:34:03;100422.44;;;10.63;100.00
51849;BME280;38952;51.090;-1.832;2024-03-17T01:36:28;100406.50;;;10.55;100.00
51849;BME280;38952;51.090;-1.832;2024-03-17T01:38:54;100399.94;;;10.51;100.00
51849;BME280;38952;51.090;-1.832;2024-03-17T01:41:19;100410.91;;;10.61;100.00
51849;BME280;38952;51.090;-1.832;2024-03-17T01:43:45;100399.44;;;10.54;100.00
51849;BME280;38952;51.090;-1.832;2024-03-17T01:46:14;100374.22;;;10.47;100.00
51849;BME280;38952;51.090;-1.832;2024-03-17T01:48:43;100376.44;;;10.50;100.00
51849;BME280;38952;51.090;-1.832;2024-03-17T01:51:13;100375.59;;;10.50;100.00
51849;BME280;38952;51.090;-1.832;2024-03-17T01:53:40;100385.19;;;10.52;100.00
51849;BME280;38952;51.090;-1.832;2024-03-17T01:56:07;100388.50;;;10.54;100.00
51849;BME280;38952;51.090;-1.832;2024-03-17T01:58:36;100388.22;;;10.56;100.00
51849;BME280;38952;51.090;-1.832;2024-03-17T02:01:01;100378.06;;;10.46;100.00
51849;BME280;38952;51.090;-1.832;2024-03-17T02:03:30;100379.41;;;10.43;100.00
51849;BME280;38952;51.090;-1.832;2024-03-17T02:05:58;100364.06;;;10.42;100.00
51849;BME280;38952;51.090;-1.832;2024-03-17T02:08:24;100359.94;;;10.35;100.00
51849;BME280;38952;51.090;-1.832;2024-03-17T02:10:53;100367.06;;;10.41;100.00
51849;BME280;38952;51.090;-1.832;2024-03-17T02:13:20;100371.72;;;10.40;100.00
51849;BME280;38952;51.090;-1.832;2024-03-17T02:15:46;100348.97;;;10.29;100.00
51849;BME280;38952;51.090;-1.832;2024-03-17T02:18:11;100364.91;;;10.43;100.00
51849;BME280;38952;51.090;-1.832;2024-03-17T02:20:37;100360.78;;;10.40;100.00
51849;BME280;38952;51.090;-1.832;2024-03-17T02:23:21;100358.34;;;10.39;100.00
51849;BME280;38952;51.090;-1.832;2024-03-17T02:25:46;100351.78;;;10.40;100.00
51849;BME280;38952;51.090;-1.832;2024-03-17T02:28:13;100353.97;;;10.43;100.00
51849;BME280;38952;51.090;-1.832;2024-03-17T02:30:38;100360.03;;;10.50;100.00
51849;BME280;38952;51.090;-1.832;2024-03-17T02:33:04;100356.19;;;10.51;100.00
51849;BME280;38952;51.090;-1.832;2024-03-17T02:35:29;100351.25;;;10.48;100.00
51849;BME280;38952;51.090;-1.832;2024-03-17T02:37:54;100346.34;;;10.50;100.00
51849;BME280;38952;51.090;-1.832;2024-03-17T02:40:20;100349.09;;;10.55;100.00
51849;BME280;38952;51.090;-1.832;2024-03-17T02:42:45;100322.53;;;10.40;100.00
51849;BME280;38952;51.090;-1.832;2024-03-17T02:45:14;100326.06;;;10.41;100.00
51849;BME280;38952;51.090;-1.832;2024-03-17T02:47:39;100330.22;;;10.48;100.00
51849;BME280;38952;51.090;-1.832;2024-03-17T02:50:06;100328.28;;;10.44;100.00
51849;BME280;38952;51.090;-1.832;2024-03-17T02:52:31;100325.00;;;10.42;100.00
51849;BME280;38952;51.090;-1.832;2024-03-17T02:54:59;100322.25;;;10.37;100.00
51849;BME280;38952;51.090;-1.832;2024-03-17T02:57:25;100297.53;;;10.21;100.00
51849;BME280;38952;51.090;-1.832;2024-03-17T02:59:58;100310.13;;;10.27;100.00
51849;BME280;38952;51.090;-1.832;2024-03-17T03:02:23;100290.44;;;10.20;100.00
51849;BME280;38952;51.090;-1.832;2024-03-17T03:04:49;100294.00;;;10.26;100.00
51849;BME280;38952;51.090;-1.832;2024-03-17T03:07:15;100281.72;;;10.28;100.00
51849;BME280;38952;51.090;-1.832;2024-03-17T03:09:40;100290.81;;;10.39;100.00
51849;BME280;38952;51.090;-1.832;2024-03-17T03:12:06;100290.00;;;10.39;100.00
51849;BME280;38952;51.090;-1.832;2024-03-17T03:14:33;100305.88;;;10.47;100.00
51849;BME280;38952;51.090;-1.832;2024-03-17T03:16:58;100288.91;;;10.40;100.00
51849;BME280;38952;51.090;-1.832;2024-03-17T03:19:24;100269.75;;;10.35;100.00
51849;BME280;38952;51.090;-1.832;2024-03-17T03:21:50;100261.78;;;10.28;100.00
51849;BME280;38952;51.090;-1.832;2024-03-17T03:24:16;100288.38;;;10.48;100.00
51849;BME280;38952;51.090;-1.832;2024-03-17T03:26:42;100271.66;;;10.39;100.00
51849;BME280;38952;51.090;-1.832;2024-03-17T03:29:10;100288.94;;;10.50;100.00
51849;BME280;38952;51.090;-1.832;2024-03-17T03:31:36;100270.84;;;10.44;100.00
51849;BME280;38952;51.090;-1.832;2024-03-17T03:34:04;100276.91;;;10.51;100.00
51849;BME280;38952;51.090;-1.832;2024-03-17T03:36:32;100276.38;;;10.54;100.00
51849;BME280;38952;51.090;-1.832;2024-03-17T03:38:58;100277.75;;;10.57;100.00
51849;BME280;38952;51.090;-1.832;2024-03-17T03:41:23;100285.13;;;10.56;100.00
51849;BME280;38952;51.090;-1.832;2024-03-17T03:43:50;100266.00;;;10.56;100.00
51849;BME280;38952;51.090;-1.832;2024-03-17T03:46:15;100266.25;;;10.55;100.00
51849;BME280;38952;51.090;-1.832;2024-03-17T03:48:41;100257.25;;;10.59;100.00
51849;BME280;38952;51.090;-1.832;2024-03-17T03:51:07;100258.88;;;10.55;100.00
51849;BME280;38952;51.090;-1.832;2024-03-17T03:53:33;100265.44;;;10.59;100.00
51849;BME280;38952;51.090;-1.832;2024-03-17T03:56:00;100253.13;;;10.57;100.00
51849;BME280;38952;51.090;-1.832;2024-03-17T03:58:27;100246.31;;;10.54;100.00
51849;BME280;38952;51.090;-1.832;2024-03-17T04:00:54;100244.09;;;10.51;100.00
51849;BME280;38952;51.090;-1.832;2024-03-17T04:03:20;100247.94;;;10.55;100.00
51849;BME280;38952;51.090;-1.832;2024-03-17T04:05:45;100243.00;;;10.52;100.00
51849;BME280;38952;51.090;-1.832;2024-03-17T04:08:11;100247.38;;;10.58;100.00
51849;BME280;38952;51.090;-1.832;2024-03-17T04:10:36;100235.38;;;10.54;100.00
51849;BME280;38952;51.090;-1.832;2024-03-17T04:13:02;100232.63;;;10.49;100.00
51849;BME280;38952;51.090;-1.832;2024-03-17T04:15:28;100234.25;;;10.50;100.00
51849;BME280;38952;51.090;-1.832;2024-03-17T04:17:53;100233.16;;;10.46;100.00
51849;BME280;38952;51.090;-1.832;2024-03-17T04:20:19;100230.69;;;10.44;100.00
51849;BME280;38952;51.090;-1.832;2024-03-17T04:22:44;100221.13;;;10.37;100.00
51849;BME280;38952;51.090;-1.832;2024-03-17T04:25:11;100235.31;;;10.39;100.00
51849;BME280;38952;51.090;-1.832;2024-03-17T04:27:38;100227.59;;;10.30;100.00
51849;BME280;38952;51.090;-1.832;2024-03-17T04:30:04;100234.19;;;10.29;100.00
51849;BME280;38952;51.090;-1.832;2024-03-17T04:32:31;100231.97;;;10.26;100.00
51849;BME280;38952;51.090;-1.832;2024-03-17T04:34:57;100227.03;;;10.18;100.00
51849;BME280;38952;51.090;-1.832;2024-03-17T04:37:22;100218.28;;;10.16;100.00
51849;BME280;38952;51.090;-1.832;2024-03-17T04:39:48;100230.31;;;10.20;100.00
51849;BME280;38952;51.090;-1.832;2024-03-17T04:42:15;100223.47;;;10.12;100.00
51849;BME280;38952;51.090;-1.832;2024-03-17T04:44:42;100220.19;;;10.10;100.00
51849;BME280;38952;51.090;-1.832;2024-03-17T04:47:07;100211.16;;;10.10;100.00
51849;BME280;38952;51.090;-1.832;2024-03-17T04:49:37;100217.69;;;10.09;100.00
51849;BME280;38952;51.090;-1.832;2024-03-17T04:52:04;100218.22;;;10.06;100.00
51849;BME280;38952;51.090;-1.832;2024-03-17T04:54:31;100215.50;;;10.06;100.00
51849;BME280;38952;51.090;-1.832;2024-03-17T04:56:56;100211.16;;;10.05;100.00
51849;BME280;38952;51.090;-1.832;2024-03-17T04:59:22;100200.75;;;10.02;100.00
51849;BME280;38952;51.090;-1.832;2024-03-17T05:01:47;100199.09;;;10.01;100.00
51849;BME280;38952;51.090;-1.832;2024-03-17T05:04:14;100207.03;;;10.02;100.00
51849;BME280;38952;51.090;-1.832;2024-03-17T05:06:39;100194.75;;;10.05;100.00
51849;BME280;38952;51.090;-1.832;2024-03-17T05:09:07;100201.31;;;10.04;100.00
51849;BME280;38952;51.090;-1.832;2024-03-17T05:11:32;100178.31;;;9.89;100.00
51849;BME280;38952;51.090;-1.832;2024-03-17T05:14:00;100201.84;;;10.06;100.00
51849;BME280;38952;51.090;-1.832;2024-03-17T05:16:26;100194.75;;;10.05;100.00
51849;BME280;38952;51.090;-1.832;2024-03-17T05:18:54;100195.84;;;10.04;100.00
51849;BME280;38952;51.090;-1.832;2024-03-17T05:21:20;100195.84;;;10.04;100.00
51849;BME280;38952;51.090;-1.832;2024-03-17T05:23:47;100197.50;;;10.05;100.00
51849;BME280;38952;51.090;-1.832;2024-03-17T05:26:13;100197.75;;;10.08;100.00
51849;BME280;38952;51.090;-1.832;2024-03-17T05:28:39;100204.03;;;10.04;100.00
51849;BME280;38952;51.090;-1.832;2024-03-17T05:31:06;100184.38;;;10.02;100.00
51849;BME280;38952;51.090;-1.832;2024-03-17T05:33:34;100186.00;;;10.03;100.00
51849;BME280;38952;51.090;-1.832;2024-03-17T05:36:02;100190.91;;;10.06;100.00
51849;BME280;38952;51.090;-1.832;2024-03-17T05:38:29;100179.97;;;10.01;100.00
51849;BME280;38952;51.090;-1.832;2024-03-17T05:40:59;100187.09;;;10.07;100.00
51849;BME280;38952;51.090;-1.832;2024-03-17T05:43:26;100182.72;;;10.06;100.00
51849;BME280;38952;51.090;-1.832;2024-03-17T05:45:57;100189.84;;;10.07;100.00
51849;BME280;38952;51.090;-1.832;2024-03-17T05:48:23;100194.22;;;10.08;100.00
51849;BME280;38952;51.090;-1.832;2024-03-17T05:50:52;100172.06;;;10.04;100.00
51849;BME280;38952;51.090;-1.832;2024-03-17T05:53:18;100171.78;;;10.01;100.00
51849;BME280;38952;51.090;-1.832;2024-03-17T05:55:43;100174.81;;;10.09;100.00
51849;BME280;38952;51.090;-1.832;2024-03-17T05:58:10;100183.56;;;10.11;100.00
51849;BME280;38952;51.090;-1.832;2024-03-17T06:00:36;100186.59;;;10.15;100.00
51849;BME280;38952;51.090;-1.832;2024-03-17T06:03:03;100176.75;;;10.14;100.00
51849;BME280;38952;51.090;-1.832;2024-03-17T06:05:32;100178.13;;;10.17;100.00
51849;BME280;38952;51.090;-1.832;2024-03-17T06:07:58;100177.00;;;10.18;100.00
51849;BME280;38952;51.090;-1.832;2024-03-17T06:10:23;100177.84;;;10.18;100.00
51849;BME280;38952;51.090;-1.832;2024-03-17T06:12:50;100178.97;;;10.22;100.00
51849;BME280;38952;51.090;-1.832;2024-03-17T06:15:16;100176.75;;;10.24;100.00
51849;BME280;38952;51.090;-1.832;2024-03-17T06:17:42;100162.00;;;10.15;100.00
51849;BME280;38952;51.090;-1.832;2024-03-17T06:20:08;100152.69;;;10.16;100.00
51849;BME280;38952;51.090;-1.832;2024-03-17T06:22:36;100160.09;;;10.21;100.00
51849;BME280;38952;51.090;-1.832;2024-03-17T06:25:02;100160.91;;;10.21;100.00
51849;BME280;38952;51.090;-1.832;2024-03-17T06:27:27;100164.47;;;10.27;100.00
51849;BME280;38952;51.090;-1.832;2024-03-17T06:29:54;100162.81;;;10.26;100.00
51849;BME280;38952;51.090;-1.832;2024-03-17T06:32:20;100158.16;;;10.26;100.00
51849;BME280;38952;51.090;-1.832;2024-03-17T06:34:45;100151.63;;;10.27;100.00
51849;BME280;38952;51.090;-1.832;2024-03-17T06:37:14;100163.13;;;10.29;100.00
51849;BME280;38952;51.090;-1.832;2024-03-17T06:39:52;100156.56;;;10.25;100.00
51849;BME280;38952;51.090;-1.832;2024-03-17T06:42:18;100154.38;;;10.22;100.00
51849;BME280;38952;51.090;-1.832;2024-03-17T06:44:44;100144.53;;;10.21;100.00
51849;BME280;38952;51.090;-1.832;2024-03-17T06:47:09;100142.59;;;10.17;100.00
51849;BME280;38952;51.090;-1.832;2024-03-17T06:49:35;100131.91;;;10.10;100.00
51849;BME280;38952;51.090;-1.832;2024-03-17T06:52:00;100149.97;;;10.21;100.00
51849;BME280;38952;51.090;-1.832;2024-03-17T06:54:26;100144.53;;;10.21;100.00
51849;BME280;38952;51.090;-1.832;2024-03-17T06:56:51;100148.09;;;10.27;100.00
51849;BME280;38952;51.090;-1.832;2024-03-17T06:59:20;100146.72;;;10.29;100.00
51849;BME280;38952;51.090;-1.832;2024-03-17T07:04:43;100127.81;;;10.18;100.00
51849;BME280;38952;51.090;-1.832;2024-03-17T07:07:09;100147.84;;;10.34;100.00
51849;BME280;38952;51.090;-1.832;2024-03-17T07:09:35;100143.72;;;10.31;100.00
51849;BME280;38952;51.090;-1.832;2024-03-17T07:12:00;100133.34;;;10.28;100.00
51849;BME280;38952;51.090;-1.832;2024-03-17T07:14:26;100144.53;;;10.31;100.00
51849;BME280;38952;51.090;-1.832;2024-03-17T07:16:53;100137.16;;;10.27;100.00
51849;BME280;38952;51.090;-1.832;2024-03-17T07:19:22;100127.03;;;10.27;100.00
51849;BME280;38952;51.090;-1.832;2024-03-17T07:21:47;100135.25;;;10.33;100.00
51849;BME280;38952;51.090;-1.832;2024-03-17T07:26:59;100130.34;;;10.29;100.00
51849;BME280;38952;51.090;-1.832;2024-03-17T07:34:58;100115.56;;;10.25;100.00
51849;BME280;38952;51.090;-1.832;2024-03-17T07:37:47;100118.34;;;10.36;100.00
51849;BME280;38952;51.090;-1.832;2024-03-17T07:40:31;100133.09;;;10.55;100.00
51849;BME280;38952;51.090;-1.832;2024-03-17T07:43:24;100130.38;;;10.55;100.00
51849;BME280;38952;51.090;-1.832;2024-03-17T07:48:56;100145.94;;;10.70;100.00
51849;BME280;38952;51.090;-1.832;2024-03-17T07:51:30;100089.91;;;10.42;100.00
51849;BME280;38952;51.090;-1.832;2024-03-17T07:57:12;100120.53;;;10.54;100.00
51849;BME280;38952;51.090;-1.832;2024-03-17T08:00:15;100101.94;;;10.46;100.00
51849;BME280;38952;51.090;-1.832;2024-03-17T08:03:21;100104.66;;;10.61;100.00
51849;BME280;38952;51.090;-1.832;2024-03-17T08:06:18;100107.13;;;10.63;100.00
51849;BME280;38952;51.090;-1.832;2024-03-17T08:09:17;100097.53;;;10.76;100.00
51849;BME280;38952;51.090;-1.832;2024-03-17T08:11:53;100099.16;;;10.87;100.00
51849;BME280;38952;51.090;-1.832;2024-03-17T08:14:21;100088.22;;;10.92;100.00
51849;BME280;38952;51.090;-1.832;2024-03-17T08:16:49;100113.66;;;11.08;100.00
51849;BME280;38952;51.090;-1.832;2024-03-17T08:19:17;100109.53;;;11.06;100.00
51849;BME280;38952;51.090;-1.832;2024-03-17T08:21:53;100113.38;;;11.10;100.00
51849;BME280;38952;51.090;-1.832;2024-03-17T08:24:39;100085.47;;;10.97;100.00
51849;BME280;38952;51.090;-1.832;2024-03-17T08:27:09;100122.38;;;11.21;100.00
51849;BME280;38952;51.090;-1.832;2024-03-17T08:29:42;100119.63;;;11.26;100.00
51849;BME280;38952;51.090;-1.832;2024-03-17T08:32:07;100131.88;;;11.44;100.00
51849;BME280;38952;51.090;-1.832;2024-03-17T08:35:01;100102.84;;;11.43;100.00
51849;BME280;38952;51.090;-1.832;2024-03-17T08:37:57;100103.38;;;11.50;100.00
51849;BME280;38952;51.090;-1.832;2024-03-17T08:41:01;100102.81;;;11.53;100.00
51849;BME280;38952;51.090;-1.832;2024-03-17T08:43:32;100120.84;;;11.64;100.00
51849;BME280;38952;51.090;-1.832;2024-03-17T08:46:06;100131.53;;;11.66;100.00
51849;BME280;38952;51.090;-1.832;2024-03-17T08:48:36;100130.16;;;11.68;100.00
51849;BME280;38952;51.090;-1.832;2024-03-17T08:51:04;100120.84;;;11.64;100.00
51849;BME280;38952;51.090;-1.832;2024-03-17T08:53:33;100138.66;;;11.62;100.00
51849;BME280;38952;51.090;-1.832;2024-03-17T08:55:59;100132.13;;;11.47;100.00
51849;BME280;38952;51.090;-1.832;2024-03-17T08:58:26;100129.69;;;11.46;100.00
51849;BME280;38952;51.090;-1.832;2024-03-17T09:00:54;100122.91;;;11.28;100.00
51849;BME280;38952;51.090;-1.832;2024-03-17T09:03:28;100133.00;;;11.38;100.00
51849;BME280;38952;51.090;-1.832;2024-03-17T09:05:53;100129.72;;;11.35;100.00
51849;BME280;38952;51.090;-1.832;2024-03-17T09:08:25;100127.53;;;11.38;100.00
51849;BME280;38952;51.090;-1.832;2024-03-17T09:11:11;100132.94;;;11.53;100.00
51849;BME280;38952;51.090;-1.832;2024-03-17T09:13:44;100128.81;;;11.56;100.00
51849;BME280;38952;51.090;-1.832;2024-03-17T09:16:13;100122.19;;;11.72;100.00
51849;BME280;38952;51.090;-1.832;2024-03-17T09:19:14;100144.22;;;12.07;100.00
51849;BME280;38952;51.090;-1.832;2024-03-17T09:21:50;100117.69;;;11.97;100.00
51849;BME280;38952;51.090;-1.832;2024-03-17T09:24:33;100097.16;;;11.94;100.00
51849;BME280;38952;51.090;-1.832;2024-03-17T09:26:59;100118.94;;;12.15;100.00
51849;BME280;38952;51.090;-1.832;2024-03-17T09:29:34;100127.09;;;12.30;100.00
51849;BME280;38952;51.090;-1.832;2024-03-17T09:31:59;100140.16;;;12.44;100.00
51849;BME280;38952;51.090;-1.832;2024-03-17T09:34:28;100153.22;;;12.57;100.00
51849;BME280;38952;51.090;-1.832;2024-03-17T09:36:56;100136.75;;;12.57;100.00
51849;BME280;38952;51.090;-1.832;2024-03-17T09:39:24;100117.03;;;12.55;100.00
51849;BME280;38952;51.090;-1.832;2024-03-17T09:41:50;100117.84;;;12.55;100.00
51849;BME280;38952;51.090;-1.832;2024-03-17T09:44:15;100114.81;;;12.57;100.00
51849;BME280;38952;51.090;-1.832;2024-03-17T09:46:43;100134.38;;;12.80;100.00
51849;BME280;38952;51.090;-1.832;2024-03-17T09:49:15;100148.31;;;12.88;100.00
51849;BME280;38952;51.090;-1.832;2024-03-17T09:51:43;100135.44;;;12.84;100.00
51849;BME280;38952;51.090;-1.832;2024-03-17T09:54:17;100151.84;;;12.89;100.00
51849;BME280;38952;51.090;-1.832;2024-03-17T09:56:56;100161.22;;;12.88;100.00
51849;BME280;38952;51.090;-1.832;2024-03-17T09:59:46;100143.69;;;12.84;100.00
51849;BME280;38952;51.090;-1.832;2024-03-17T10:02:21;100126.06;;;12.90;100.00
51849;BME280;38952;51.090;-1.832;2024-03-17T10:05:18;100158.00;;;13.39;100.00
51849;BME280;38952;51.090;-1.832;2024-03-17T10:08:20;100162.72;;;13.28;100.00
51849;BME280;38952;51.090;-1.832;2024-03-17T10:11:15;100140.09;;;13.13;100.00
51849;BME280;38952;51.090;-1.832;2024-03-17T10:28:43;100158.19;;;15.33;100.00
51849;BME280;38952;51.090;-1.832;2024-03-17T10:31:09;100150.66;;;15.67;100.00
51849;BME280;38952;51.090;-1.832;2024-03-17T10:33:36;100153.44;;;16.31;100.00
51849;BME280;38952;51.090;-1.832;2024-03-17T10:36:28;100128.91;;;16.75;100.00
51849;BME280;38952;51.090;-1.832;2024-03-17T11:45:34;100164.19;;;14.89;100.00
51849;BME280;38952;51.090;-1.832;2024-03-17T11:48:12;100148.50;;;14.37;100.00
51849;BME280;38952;51.090;-1.832;2024-03-17T11:50:39;100147.59;;;14.23;100.00
51849;BME280;38952;51.090;-1.832;2024-03-17T11:53:09;100143.34;;;14.30;100.00
51849;BME280;38952;51.090;-1.832;2024-03-17T11:55:49;100149.38;;;15.17;100.00
51849;BME280;38952;51.090;-1.832;2024-03-17T11:58:15;100128.38;;;17.18;100.00
51849;BME280;38952;51.090;-1.832;2024-03-17T12:00:43;100145.56;;;19.86;89.95
51849;BME280;38952;51.090;-1.832;2024-03-17T12:03:16;100158.16;;;22.91;65.84
51849;BME280;38952;51.090;-1.832;2024-03-17T12:05:42;100141.88;;;23.37;59.43
51849;BME280;38952;51.090;-1.832;2024-03-17T12:08:36;100154.72;;;24.25;58.17
51849;BME280;38952;51.090;-1.832;2024-03-17T12:11:01;100158.63;;;23.37;54.74
51849;BME280;38952;51.090;-1.832;2024-03-17T12:13:33;100129.91;;;21.58;56.79
51849;BME280;38952;51.090;-1.832;2024-03-17T12:16:12;100148.31;;;20.16;62.16
51849;BME280;38952;51.090;-1.832;2024-03-17T12:18:38;100149.03;;;25.19;56.46
51849;BME280;38952;51.090;-1.832;2024-03-17T12:21:12;100124.03;;;31.50;42.04
51849;BME280;38952;51.090;-1.832;2024-03-17T12:23:39;100129.41;;;36.97;34.88
51849;BME280;38952;51.090;-1.832;2024-03-17T12:26:05;100104.72;;;39.28;26.04
51849;BME280;38952;51.090;-1.832;2024-03-17T12:28:39;100110.50;;;37.99;24.08
51849;BME280;38952;51.090;-1.832;2024-03-17T12:31:04;100115.91;;;37.62;23.99
51849;BME280;38952;51.090;-1.832;2024-03-17T12:33:31;100111.75;;;38.96;22.18
51849;BME280;38952;51.090;-1.832;2024-03-17T12:35:56;100109.38;;;39.91;21.21
51849;BME280;38952;51.090;-1.832;2024-03-17T12:38:26;100092.47;;;39.19;21.66
51849;BME280;38952;51.090;-1.832;2024-03-17T12:40:52;100097.66;;;36.86;22.70
51849;BME280;38952;51.090;-1.832;2024-03-17T12:43:17;100093.88;;;31.81;27.32
51849;BME280;38952;51.090;-1.832;2024-03-17T12:45:42;100101.91;;;32.56;29.37
51849;BME280;38952;51.090;-1.832;2024-03-17T12:48:14;100092.13;;;32.60;27.78
51849;BME280;38952;51.090;-1.832;2024-03-17T12:51:13;100101.97;;;34.01;26.62
51849;BME280;38952;51.090;-1.832;2024-03-17T12:53:49;100085.44;;;36.73;23.26
51849;BME280;38952;51.090;-1.832;2024-03-17T12:56:29;100097.00;;;38.35;21.55
51849;BME280;38952;51.090;-1.832;2024-03-17T12:59:14;100085.09;;;39.08;20.36
51849;BME280;38952;51.090;-1.832;2024-03-17T13:02:01;100105.19;;;40.47;19.38
51849;BME280;38952;51.090;-1.832;2024-03-17T13:04:26;100091.22;;;40.31;18.70
51849;BME280;38952;51.090;-1.832;2024-03-17T13:06:52;100098.09;;;40.76;18.88
51849;BME280;38952;51.090;-1.832;2024-03-17T13:09:19;100085.22;;;39.83;18.69
51849;BME280;38952;51.090;-1.832;2024-03-17T13:11:46;100078.19;;;34.55;23.09
51849;BME280;38952;51.090;-1.832;2024-03-17T13:14:11;100081.19;;;30.46;27.98
51849;BME280;38952;51.090;-1.832;2024-03-17T13:16:42;100067.19;;;27.64;32.44
51849;BME280;38952;51.090;-1.832;2024-03-17T13:19:08;100073.78;;;26.89;34.33
51849;BME280;38952;51.090;-1.832;2024-03-17T13:21:34;100069.56;;;25.01;36.78
51849;BME280;38952;51.090;-1.832;2024-03-17T13:23:59;100069.25;;;25.79;38.43
51849;BME280;38952;51.090;-1.832;2024-03-17T13:26:25;100071.06;;;25.41;37.00
51849;BME280;38952;51.090;-1.832;2024-03-17T13:28:50;100066.91;;;23.87;39.53
51849;BME280;38952;51.090;-1.832;2024-03-17T13:31:16;100071.97;;;22.54;41.82
51849;BME280;38952;51.090;-1.832;2024-03-17T13:33:41;100062.66;;;21.43;45.05
51849;BME280;38952;51.090;-1.832;2024-03-17T13:36:07;100067.09;;;20.40;46.81
51849;BME280;38952;51.090;-1.832;2024-03-17T13:38:33;100062.44;;;19.39;50.24
51849;BME280;38952;51.090;-1.832;2024-03-17T13:40:59;100050.31;;;18.66;53.05
51849;BME280;38952;51.090;-1.832;2024-03-17T13:43:29;100048.41;;;18.14;56.01
51849;BME280;38952;51.090;-1.832;2024-03-17T13:45:54;100014.72;;;17.77;57.62
51849;BME280;38952;51.090;-1.832;2024-03-17T13:48:20;100051.53;;;18.13;58.18
51849;BME280;38952;51.090;-1.832;2024-03-17T13:50:45;100063.09;;;18.33;57.78
51849;BME280;38952;51.090;-1.832;2024-03-17T13:53:12;100072.84;;;18.21;58.34
51849;BME280;38952;51.090;-1.832;2024-03-17T13:55:38;100058.03;;;18.00;59.04
51849;BME280;38952;51.090;-1.832;2024-03-17T13:58:03;100066.97;;;18.40;59.37
51849;BME280;38952;51.090;-1.832;2024-03-17T14:00:33;100068.84;;;18.75;56.96
51849;BME280;38952;51.090;-1.832;2024-03-17T14:03:03;100066.63;;;18.59;57.45
51849;BME280;38952;51.090;-1.832;2024-03-17T14:05:28;100069.22;;;18.47;58.32
51849;BME280;38952;51.090;-1.832;2024-03-17T14:08:01;100068.03;;;18.74;58.66
51849;BME280;38952;51.090;-1.832;2024-03-17T14:10:27;100052.38;;;18.96;56.14
51849;BME280;38952;51.090;-1.832;2024-03-17T14:12:55;100042.16;;;20.19;54.37
51849;BME280;38952;51.090;-1.832;2024-03-17T14:15:22;100050.41;;;21.20;49.86
51849;BME280;38952;51.090;-1.832;2024-03-17T14:17:50;100056.06;;;20.99;49.54
51849;BME280;38952;51.090;-1.832;2024-03-17T14:20:16;100071.97;;;23.30;47.33
51849;BME280;38952;51.090;-1.832;2024-03-17T14:22:44;100064.91;;;28.76;37.27